Time;durP1;ratioP1;P1;durP2;ratioP2;P2;SDS_P1;SDS_P2;PMS_P1;PMS_P2;Temp;Humidity;BMP_temperature;BMP_pressure;BME280_temperature;BME280_humidity;BME280_pressure;Samples;Min_cycle;Max_cycle;Signal;HPM_P1;HPM_P2
2022/12/03 04:58:56;;;;;;;22.77;13.20;;;;;;;;;;6219975;22;20431;-94
2022/12/03 05:01:46;;;;;;;21.97;12.97;;;;;;;;;;6309693;22;20763;-93
2022/12/03 05:04:39;;;;;;;20.80;12.90;;;;;;;;;;6316981;22;20413;-94
2022/12/03 05:07:31;;;;;;;21.03;13.40;;;;;;;;;;6275124;22;20478;-92
2022/12/03 05:10:22;;;;;;;23.07;13.37;;;;;;;;;;6270364;22;20448;-93
2022/12/03 05:13:11;;;;;;;17.57;11.90;;;;;;;;;;6271648;22;20414;-93
2022/12/03 05:16:01;;;;;;;19.07;12.57;;;;;;;;;;6272245;22;20436;-94
2022/12/03 05:18:53;;;;;;;22.33;13.30;;;;;;;;;;6272062;22;20441;-93
2022/12/03 05:21:43;;;;;;;21.40;12.60;;;;;;;;;;6272479;22;20406;-93
2022/12/03 05:24:32;;;;;;;22.17;12.30;;;;;;;;;;6277571;22;20421;-93
2022/12/03 05:27:22;;;;;;;22.07;13.50;;;;;;;;;;6273873;22;20437;-93
2022/12/03 05:30:16;;;;;;;23.00;12.90;;;;;;;;;;6274104;22;20405;-94
2022/12/03 05:33:10;;;;;;;20.20;13.30;;;;;;;;;;6275917;22;20473;-95
2022/12/03 05:36:19;;;;;;;22.63;13.47;;;;;;;;;;6279649;22;20448;-94
2022/12/03 06:09:05;;;;;;;22.50;13.90;;;;;;;;;;6382681;22;20446;-93
2022/12/03 06:12:07;;;;;;;25.17;14.03;;;;;;;;;;6400150;22;20414;-91
2022/12/03 06:14:59;;;;;;;25.00;13.67;;;;;;;;;;6396497;22;20415;-93
2022/12/03 06:17:51;;;;;;;22.23;13.40;;;;;;;;;;6360869;22;20440;-92
2022/12/03 06:20:43;;;;;;;23.60;13.80;;;;;;;;;;6368904;22;20405;-92
2022/12/03 06:23:33;;;;;;;24.83;14.40;;;;;;;;;;6362110;22;20412;-92
2022/12/03 06:26:24;;;;;;;19.37;12.70;;;;;;;;;;6367204;22;20681;-93
2022/12/03 06:29:17;;;;;;;20.20;12.80;;;;;;;;;;6357145;22;20432;-92
2022/12/03 06:32:08;;;;;;;23.00;13.23;;;;;;;;;;6363423;22;20746;-94
2022/12/03 06:35:01;;;;;;;19.70;13.13;;;;;;;;;;6368445;22;20396;-95
2022/12/03 17:38:11;;;;;;;18.60;12.07;;;;;;;;;;6208329;22;20909;-73
2022/12/03 17:43:48;;;;;;;18.07;12.30;;;;;;;;;;6245328;22;20409;-75
2022/12/03 17:46:39;;;;;;;19.70;12.53;;;;;;;;;;6262721;22;20413;-78
2022/12/03 17:49:28;;;;;;;18.37;13.00;;;;;;;;;;6269163;22;20465;-76
2022/12/03 17:52:19;;;;;;;18.60;13.80;;;;;;;;;;6260301;22;20405;-76
2022/12/03 17:55:09;;;;;;;18.40;12.57;;;;;;;;;;6271686;22;20462;-81
2022/12/03 17:58:05;;;;;;;16.60;11.97;;;;;;;;;;6339411;22;20490;-77
2022/12/03 18:00:54;;;;;;;18.47;12.67;;;;;;;;;;6328320;22;20408;-78
2022/12/03 18:03:52;;;;;;;18.70;11.63;;;;;;;;;;6331195;22;20412;-75
2022/12/03 18:06:43;;;;;;;21.73;13.07;;;;;;;;;;6337927;22;20451;-76
2022/12/03 18:09:32;;;;;;;19.87;14.00;;;;;;;;;;6325690;22;20453;-75
2022/12/03 18:12:22;;;;;;;17.83;12.70;;;;;;;;;;6318393;22;20511;-73
2022/12/03 18:15:10;;;;;;;17.40;12.33;;;;;;;;;;6323309;22;20432;-74
2022/12/03 18:17:59;;;;;;;20.77;13.00;;;;;;;;;;6329075;22;20415;-74
2022/12/03 18:20:47;;;;;;;17.30;11.50;;;;;;;;;;6327186;22;20423;-75
2022/12/03 18:23:36;;;;;;;20.30;11.77;;;;;;;;;;6333533;22;20410;-73
2022/12/03 18:26:25;;;;;;;19.47;12.77;;;;;;;;;;6329840;22;20457;-73
2022/12/03 18:29:15;;;;;;;17.23;11.97;;;;;;;;;;6322014;22;20559;-72
2022/12/03 18:32:04;;;;;;;16.73;12.03;;;;;;;;;;6333268;22;20408;-73
2022/12/03 18:34:52;;;;;;;17.20;12.53;;;;;;;;;;6321179;22;20431;-72
2022/12/03 18:37:41;;;;;;;18.83;11.97;;;;;;;;;;6325622;22;20827;-72
2022/12/03 18:40:30;;;;;;;17.30;12.00;;;;;;;;;;6326439;22;20436;-74
2022/12/03 18:43:18;;;;;;;17.70;11.80;;;;;;;;;;6328359;22;20404;-74
2022/12/03 18:46:13;;;;;;;21.20;13.57;;;;;;;;;;6333825;22;20451;-75
2022/12/03 18:49:22;;;;;;;22.60;12.40;;;;;;;;;;6326108;22;20437;-73
2022/12/03 18:52:12;;;;;;;19.30;12.67;;;;;;;;;;6323286;22;20534;-71
2022/12/03 18:55:01;;;;;;;17.70;12.23;;;;;;;;;;6329219;22;20764;-71
2022/12/03 18:57:50;;;;;;;20.90;13.33;;;;;;;;;;6315806;22;20939;-74
2022/12/03 19:00:39;;;;;;;19.60;14.07;;;;;;;;;;6325786;22;21216;-77
2022/12/03 19:03:29;;;;;;;25.80;14.97;;;;;;;;;;6331160;22;20422;-75
2022/12/03 19:06:18;;;;;;;23.20;13.87;;;;;;;;;;6337791;22;20469;-75
2022/12/03 19:09:07;;;;;;;24.20;15.20;;;;;;;;;;6317814;22;20415;-75
2022/12/03 19:11:55;;;;;;;23.97;15.23;;;;;;;;;;6324276;22;20505;-76
2022/12/03 19:14:46;;;;;;;22.27;15.47;;;;;;;;;;6317402;22;20412;-75
2022/12/03 19:17:34;;;;;;;25.73;16.60;;;;;;;;;;6324244;22;20416;-72
2022/12/03 19:20:24;;;;;;;25.87;16.10;;;;;;;;;;6331124;22;20432;-75
2022/12/03 19:23:14;;;;;;;28.00;18.00;;;;;;;;;;6317984;22;20421;-75
2022/12/03 19:26:07;;;;;;;27.60;17.60;;;;;;;;;;6323660;22;20438;-77
2022/12/03 19:28:56;;;;;;;27.70;16.70;;;;;;;;;;6322087;22;20427;-75
2022/12/03 19:31:44;;;;;;;29.70;17.70;;;;;;;;;;6325543;22;20782;-78
2022/12/03 19:34:33;;;;;;;27.90;17.70;;;;;;;;;;6331761;22;21297;-78
2022/12/03 19:37:23;;;;;;;37.50;17.77;;;;;;;;;;6317999;22;20434;-75
2022/12/03 19:40:12;;;;;;;28.93;17.30;;;;;;;;;;6326785;22;20604;-78
2022/12/03 19:43:02;;;;;;;30.77;18.43;;;;;;;;;;6330372;22;20777;-75
2022/12/03 19:45:52;;;;;;;32.73;18.73;;;;;;;;;;6325315;22;20428;-75
2022/12/03 19:48:41;;;;;;;35.07;18.40;;;;;;;;;;6326991;22;20465;-73
2022/12/03 19:51:30;;;;;;;28.77;17.93;;;;;;;;;;6328654;22;20431;-74
2022/12/03 19:54:24;;;;;;;34.30;18.67;;;;;;;;;;6328251;22;20515;-76
2022/12/03 19:57:15;;;;;;;30.67;18.50;;;;;;;;;;6330083;22;20818;-76
2022/12/03 20:00:11;;;;;;;31.70;18.80;;;;;;;;;;6338258;22;20532;-76
2022/12/03 20:03:02;;;;;;;30.97;17.90;;;;;;;;;;6328409;22;20494;-76
2022/12/03 20:05:51;;;;;;;30.33;18.43;;;;;;;;;;6330209;22;20518;-74
2022/12/03 20:08:40;;;;;;;31.43;17.40;;;;;;;;;;6330744;22;20446;-73
2022/12/03 20:11:31;;;;;;;28.90;17.40;;;;;;;;;;6342852;22;20440;-76
2022/12/03 20:14:20;;;;;;;29.53;18.00;;;;;;;;;;6331016;22;20411;-75
2022/12/03 20:17:11;;;;;;;33.40;18.87;;;;;;;;;;6340726;22;20408;-75
2022/12/03 20:19:59;;;;;;;30.67;18.07;;;;;;;;;;6329091;22;20907;-75
2022/12/03 20:22:48;;;;;;;31.07;17.73;;;;;;;;;;6332662;22;20504;-75
2022/12/03 20:25:39;;;;;;;28.10;17.50;;;;;;;;;;6339572;22;20892;-75
2022/12/03 20:28:29;;;;;;;26.57;16.00;;;;;;;;;;6340828;22;20416;-75
2022/12/03 20:31:19;;;;;;;30.07;17.10;;;;;;;;;;6328142;22;20443;-76
2022/12/03 20:34:07;;;;;;;30.87;16.67;;;;;;;;;;6340185;22;20410;-74
2022/12/03 20:36:59;;;;;;;29.17;16.83;;;;;;;;;;6331133;22;20916;-74
2022/12/03 20:39:50;;;;;;;30.30;18.80;;;;;;;;;;6329894;22;20853;-74
2022/12/03 20:42:40;;;;;;;33.10;18.30;;;;;;;;;;6331732;22;20410;-74
2022/12/03 20:45:34;;;;;;;33.53;18.57;;;;;;;;;;6327844;22;20434;-74
2022/12/03 20:48:26;;;;;;;27.90;17.20;;;;;;;;;;6332780;22;20544;-74
2022/12/03 20:51:15;;;;;;;26.63;16.47;;;;;;;;;;6328932;22;20853;-74
2022/12/03 20:54:05;;;;;;;28.50;17.17;;;;;;;;;;6339277;22;20411;-76
2022/12/03 20:56:54;;;;;;;29.27;17.80;;;;;;;;;;6328871;22;20459;-74
2022/12/03 20:59:45;;;;;;;33.90;18.60;;;;;;;;;;6340270;22;20407;-74
2022/12/03 21:02:35;;;;;;;29.50;18.17;;;;;;;;;;6331359;22;20698;-74
2022/12/03 21:05:28;;;;;;;30.67;18.80;;;;;;;;;;6330848;22;20440;-74
2022/12/03 21:08:19;;;;;;;30.87;18.80;;;;;;;;;;6338107;22;20425;-74
2022/12/03 21:11:32;;;;;;;30.17;18.63;;;;;;;;;;6349653;22;20453;-74
2022/12/03 21:14:20;;;;;;;29.40;17.30;;;;;;;;;;6343572;22;20419;-74
2022/12/03 21:17:09;;;;;;;30.00;17.93;;;;;;;;;;6327677;22;20412;-75
2022/12/03 21:20:00;;;;;;;27.87;18.23;;;;;;;;;;6340677;22;20439;-75
2022/12/03 21:22:54;;;;;;;30.23;18.70;;;;;;;;;;6332918;22;20805;-76
2022/12/03 21:25:47;;;;;;;30.40;18.37;;;;;;;;;;6332100;22;20481;-74
2022/12/03 21:28:36;;;;;;;30.07;19.30;;;;;;;;;;6329943;22;20411;-74
2022/12/03 21:31:32;;;;;;;31.77;20.87;;;;;;;;;;6330594;22;21252;-77
2022/12/03 21:34:23;;;;;;;28.30;18.90;;;;;;;;;;6331098;22;20400;-74
2022/12/03 21:37:15;;;;;;;32.77;19.63;;;;;;;;;;6328061;22;20405;-75
2022/12/03 21:40:06;;;;;;;33.07;20.10;;;;;;;;;;6330593;22;20404;-74
2022/12/03 21:42:58;;;;;;;34.77;21.03;;;;;;;;;;6328698;22;20807;-74
2022/12/03 21:45:50;;;;;;;32.73;19.40;;;;;;;;;;6328181;22;20435;-74
2022/12/03 21:48:38;;;;;;;34.10;21.00;;;;;;;;;;6326794;22;20420;-75
2022/12/03 21:51:29;;;;;;;34.10;21.30;;;;;;;;;;6329466;22;20531;-74
2022/12/03 21:54:21;;;;;;;32.33;20.03;;;;;;;;;;6326575;22;20910;-73
2022/12/03 21:57:13;;;;;;;31.67;20.73;;;;;;;;;;6322656;22;20420;-75
2022/12/03 22:00:02;;;;;;;33.77;21.07;;;;;;;;;;6330660;22;20408;-77
2022/12/03 22:02:54;;;;;;;28.50;18.50;;;;;;;;;;6325829;22;20410;-75
2022/12/03 22:05:47;;;;;;;31.83;19.23;;;;;;;;;;6331430;22;20442;-73
2022/12/03 22:08:42;;;;;;;34.40;20.43;;;;;;;;;;6339165;22;20418;-74
2022/12/03 22:11:32;;;;;;;36.53;21.37;;;;;;;;;;6328888;22;20440;-74
2022/12/03 22:14:26;;;;;;;36.57;21.10;;;;;;;;;;6340729;22;20507;-74
2022/12/03 22:17:18;;;;;;;34.97;20.97;;;;;;;;;;6341787;22;20412;-75
2022/12/03 22:20:10;;;;;;;38.00;21.30;;;;;;;;;;6332038;22;20412;-75
2022/12/03 22:23:04;;;;;;;39.27;21.20;;;;;;;;;;6332204;22;20453;-76
2022/12/03 22:26:00;;;;;;;37.80;21.77;;;;;;;;;;6333213;22;20514;-74
2022/12/03 22:28:50;;;;;;;37.57;22.87;;;;;;;;;;6339655;22;20420;-74
2022/12/03 22:31:39;;;;;;;38.40;22.93;;;;;;;;;;6330888;22;20437;-75
2022/12/03 22:34:30;;;;;;;38.10;23.80;;;;;;;;;;6329422;22;20415;-74
2022/12/03 22:37:22;;;;;;;43.00;25.57;;;;;;;;;;6340377;22;20904;-74
2022/12/03 22:40:12;;;;;;;37.73;22.53;;;;;;;;;;6333289;22;21220;-74
2022/12/03 22:43:02;;;;;;;36.50;22.47;;;;;;;;;;6330610;22;20405;-75
2022/12/03 22:45:54;;;;;;;38.83;24.20;;;;;;;;;;6353614;22;20519;-74
2022/12/03 22:48:47;;;;;;;39.57;23.03;;;;;;;;;;6331328;22;20732;-75
2022/12/03 22:51:40;;;;;;;38.80;23.60;;;;;;;;;;6326186;22;20485;-74
2022/12/03 22:54:29;;;;;;;38.33;22.53;;;;;;;;;;6330444;22;20422;-75
2022/12/03 22:57:18;;;;;;;39.17;23.40;;;;;;;;;;6343421;22;20407;-76
2022/12/03 23:00:20;;;;;;;41.50;23.97;;;;;;;;;;6324785;22;20415;-76
2022/12/03 23:03:13;;;;;;;44.53;24.80;;;;;;;;;;6332030;22;20417;-76
2022/12/03 23:06:09;;;;;;;42.47;25.20;;;;;;;;;;6331461;22;20446;-75
2022/12/03 23:09:00;;;;;;;42.77;24.13;;;;;;;;;;6330350;22;20435;-75
2022/12/03 23:11:50;;;;;;;38.53;23.30;;;;;;;;;;6325416;22;20453;-75
2022/12/03 23:14:41;;;;;;;36.63;22.47;;;;;;;;;;6340794;22;20917;-75
2022/12/03 23:17:34;;;;;;;38.27;24.13;;;;;;;;;;6334301;22;20415;-75
2022/12/03 23:20:27;;;;;;;41.70;24.10;;;;;;;;;;6331963;22;20415;-75
2022/12/03 23:23:18;;;;;;;42.10;24.13;;;;;;;;;;6331412;22;20408;-75
2022/12/03 23:26:09;;;;;;;41.43;24.90;;;;;;;;;;6331898;22;20439;-74
2022/12/03 23:29:04;;;;;;;35.23;22.17;;;;;;;;;;6341575;22;20440;-75
2022/12/03 23:31:52;;;;;;;41.73;25.00;;;;;;;;;;6330647;22;20439;-74
2022/12/03 23:34:41;;;;;;;40.77;23.50;;;;;;;;;;6329579;22;20408;-75
2022/12/03 23:37:32;;;;;;;43.40;24.03;;;;;;;;;;6327675;22;20408;-74
2022/12/03 23:40:25;;;;;;;41.10;22.80;;;;;;;;;;6329185;22;20411;-75
2022/12/03 23:43:16;;;;;;;39.03;23.50;;;;;;;;;;6329829;22;20412;-74
2022/12/03 23:46:05;;;;;;;37.93;22.77;;;;;;;;;;6330662;22;20424;-76
2022/12/03 23:48:57;;;;;;;41.47;24.07;;;;;;;;;;6327159;22;20502;-74
2022/12/03 23:51:47;;;;;;;36.40;21.83;;;;;;;;;;6326462;22;20520;-75
2022/12/03 23:54:40;;;;;;;38.70;22.37;;;;;;;;;;6330134;22;20406;-75
2022/12/03 23:57:35;;;;;;;35.97;23.23;;;;;;;;;;6325127;22;20455;-76
